Time;durP1;ratioP1;P1;durP2;ratioP2;P2;SDS_P1;SDS_P2;PMS_P1;PMS_P2;Temp;Humidity;BMP_temperature;BMP_pressure;BME280_temperature;BME280_humidity;BME280_pressure;Samples;Min_cycle;Max_cycle;Signal;HPM_P1;HPM_P2
2021/10/31 00:01:04;;;;;;;8.13;3.28;;;14.90;92.70;;;;;;5026251;28;20534;-78
2021/10/31 00:03:31;;;;;;;9.73;4.63;;;14.90;92.80;;;;;;5029392;28;20062;-78
2021/10/31 00:05:57;;;;;;;7.18;4.43;;;14.80;92.80;;;;;;5023801;28;20038;-78
2021/10/31 00:08:22;;;;;;;7.20;4.15;;;14.80;92.80;;;;;;5022024;28;20037;-78
2021/10/31 00:10:49;;;;;;;9.55;3.92;;;14.80;92.80;;;;;;5017744;28;20022;-77
2021/10/31 00:13:15;;;;;;;6.88;3.40;;;14.80;92.80;;;;;;5024387;28;20026;-77
2021/10/31 00:15:41;;;;;;;11.13;5.28;;;14.80;92.80;;;;;;5021438;28;20033;-78
2021/10/31 00:18:07;;;;;;;9.07;2.78;;;14.70;92.80;;;;;;5017855;28;20034;-77
2021/10/31 00:20:32;;;;;;;2.65;1.90;;;14.80;92.70;;;;;;5018134;28;20032;-77
2021/10/31 00:22:58;;;;;;;11.60;4.28;;;14.80;92.70;;;;;;5044202;28;20026;-77
2021/10/31 00:25:24;;;;;;;6.57;3.00;;;14.70;92.70;;;;;;5030748;28;20405;-77
2021/10/31 00:27:49;;;;;;;2.83;1.80;;;14.70;92.70;;;;;;5031234;28;20472;-78
2021/10/31 00:30:15;;;;;;;5.20;2.53;;;14.70;92.70;;;;;;5033711;28;20025;-77
2021/10/31 00:32:41;;;;;;;9.48;4.57;;;14.70;92.70;;;;;;5029238;28;20022;-77
2021/10/31 00:35:07;;;;;;;11.05;3.88;;;14.70;92.70;;;;;;5032463;28;20115;-78
2021/10/31 00:37:33;;;;;;;3.17;1.80;;;14.70;92.60;;;;;;5027636;28;20041;-78
2021/10/31 00:39:59;;;;;;;8.93;3.25;;;14.70;92.60;;;;;;5033086;28;20075;-78
2021/10/31 00:42:24;;;;;;;12.38;3.53;;;14.70;92.60;;;;;;5026403;28;20030;-78
2021/10/31 00:44:50;;;;;;;10.25;4.20;;;14.70;92.50;;;;;;5027850;28;20028;-77
2021/10/31 00:47:16;;;;;;;7.47;4.28;;;14.70;92.50;;;;;;5026486;28;20124;-77
2021/10/31 00:49:42;;;;;;;5.03;3.05;;;14.60;92.50;;;;;;5027527;28;20101;-78
2021/10/31 00:52:09;;;;;;;7.60;3.92;;;14.60;92.50;;;;;;5015658;28;20383;-78
2021/10/31 00:54:35;;;;;;;11.15;5.65;;;14.60;92.50;;;;;;5016745;28;20034;-78
2021/10/31 00:57:02;;;;;;;17.25;7.00;;;14.60;92.50;;;;;;5024273;28;20083;-77
2021/10/31 00:59:27;;;;;;;14.32;6.80;;;14.60;92.40;;;;;;5030867;28;20033;-78
2021/10/31 01:01:53;;;;;;;12.57;3.92;;;14.70;92.40;;;;;;5031030;28;20041;-78
2021/10/31 01:04:23;;;;;;;16.02;6.90;;;14.60;92.30;;;;;;5029293;28;20108;-78
2021/10/31 01:06:58;;;;;;;16.50;6.88;;;14.60;92.30;;;;;;5028640;28;20105;-78
2021/10/31 01:09:35;;;;;;;15.35;6.07;;;14.60;92.20;;;;;;5032257;28;20034;-77
2021/10/31 01:12:27;;;;;;;11.02;6.70;;;14.70;92.20;;;;;;5031181;28;20051;-78
2021/10/31 01:15:18;;;;;;;14.65;5.80;;;14.70;92.10;;;;;;5032712;28;20384;-78
2021/10/31 01:18:21;;;;;;;3.47;2.45;;;14.70;92.10;;;;;;5021296;28;20457;-78
2021/10/31 01:21:01;;;;;;;9.85;4.00;;;14.60;91.90;;;;;;5027912;28;20033;-78
2021/10/31 01:23:54;;;;;;;8.77;5.10;;;14.60;91.90;;;;;;5038622;28;20071;-78
2021/10/31 01:26:38;;;;;;;16.58;5.47;;;14.50;91.90;;;;;;5015734;28;20026;-78
2021/10/31 01:29:38;;;;;;;11.38;5.90;;;14.50;92.00;;;;;;5016678;28;20029;-78
2021/10/31 01:32:21;;;;;;;12.32;5.93;;;14.40;92.00;;;;;;5031749;28;20080;-78
2021/10/31 01:35:09;;;;;;;13.90;5.80;;;14.30;92.10;;;;;;5026072;28;20062;-78
2021/10/31 01:37:48;;;;;;;10.15;5.68;;;14.30;92.10;;;;;;5016969;28;20075;-77
2021/10/31 01:40:48;;;;;;;9.05;4.00;;;14.30;92.10;;;;;;5031681;28;20029;-77
2021/10/31 01:43:35;;;;;;;9.48;3.20;;;14.30;92.20;;;;;;5018040;28;20431;-77
2021/10/31 01:46:08;;;;;;;18.75;10.20;;;14.30;92.20;;;;;;5027800;28;20087;-78
2021/10/31 01:48:46;;;;;;;19.35;8.98;;;14.30;92.10;;;;;;5032150;28;20476;-77
2021/10/31 01:51:23;;;;;;;17.00;8.45;;;14.30;92.10;;;;;;5029771;28;20033;-78
2021/10/31 01:53:57;;;;;;;18.00;5.35;;;14.30;92.10;;;;;;5022812;28;20033;-78
2021/10/31 01:56:26;;;;;;;11.15;5.65;;;14.30;92.00;;;;;;5028490;28;20044;-77
2021/10/31 01:59:05;;;;;;;10.98;6.28;;;14.30;92.00;;;;;;5021289;28;20054;-77
2021/10/31 02:01:33;;;;;;;22.17;9.00;;;14.30;91.90;;;;;;5024333;28;20460;-77
2021/10/31 02:04:06;;;;;;;20.90;7.53;;;14.30;91.90;;;;;;5021366;28;20469;-78
2021/10/31 02:06:37;;;;;;;13.05;5.03;;;14.30;91.90;;;;;;5029841;28;20053;-77
2021/10/31 02:09:04;;;;;;;14.02;7.40;;;14.20;91.90;;;;;;5023339;28;20097;-77
2021/10/31 02:11:29;;;;;;;11.13;4.97;;;14.30;91.90;;;;;;5015933;28;20044;-77
2021/10/31 02:13:59;;;;;;;9.35;5.78;;;14.30;91.80;;;;;;5019962;28;20108;-78
2021/10/31 02:16:25;;;;;;;7.82;4.63;;;14.30;91.80;;;;;;5019655;28;20412;-77
2021/10/31 02:18:56;;;;;;;16.13;8.32;;;14.30;91.80;;;;;;5016127;28;20032;-78
2021/10/31 02:21:26;;;;;;;18.95;9.75;;;14.20;91.70;;;;;;5031341;28;20112;-77
2021/10/31 02:23:52;;;;;;;17.98;8.43;;;14.20;91.70;;;;;;5035099;28;20129;-77
2021/10/31 02:26:18;;;;;;;9.45;5.28;;;14.20;91.70;;;;;;5031923;28;20108;-78
2021/10/31 02:28:58;;;;;;;21.25;8.48;;;14.20;91.70;;;;;;5018442;28;20034;-78
2021/10/31 02:31:24;;;;;;;15.45;7.07;;;14.20;91.70;;;;;;5024083;28;20061;-77
2021/10/31 02:33:50;;;;;;;17.50;8.82;;;14.20;91.60;;;;;;5011254;28;20060;-77
2021/10/31 02:36:16;;;;;;;15.70;8.80;;;14.20;91.60;;;;;;5019623;28;20053;-77
2021/10/31 02:38:41;;;;;;;16.42;7.97;;;14.20;91.60;;;;;;5031278;28;20463;-77
2021/10/31 02:41:09;;;;;;;24.02;10.10;;;14.20;91.60;;;;;;5027293;28;20113;-77
2021/10/31 02:43:35;;;;;;;20.00;8.98;;;14.10;91.60;;;;;;5022257;28;20037;-77
2021/10/31 02:46:02;;;;;;;17.83;9.70;;;14.10;91.50;;;;;;5026549;28;20604;-77
2021/10/31 02:48:29;;;;;;;18.60;10.45;;;14.20;91.50;;;;;;5034660;28;20033;-77
2021/10/31 02:51:00;;;;;;;23.75;10.75;;;14.20;91.50;;;;;;5038981;28;20041;-77
2021/10/31 02:53:47;;;;;;;27.13;10.80;;;14.10;91.50;;;;;;5021171;28;20071;-77
2021/10/31 02:56:33;;;;;;;18.05;9.70;;;14.20;91.50;;;;;;5021679;28;20039;-77
2021/10/31 02:59:29;;;;;;;22.17;10.57;;;14.20;91.40;;;;;;5027869;28;20987;-77
2021/10/31 03:01:57;;;;;;;21.92;10.57;;;14.20;91.40;;;;;;5012190;28;20121;-77
2021/10/31 03:04:23;;;;;;;22.38;10.85;;;14.20;91.40;;;;;;5034123;28;20408;-77
2021/10/31 03:06:54;;;;;;;21.25;11.57;;;14.20;91.30;;;;;;5023776;28;20033;-77
2021/10/31 03:09:19;;;;;;;23.25;11.77;;;14.20;91.40;;;;;;5031467;28;20120;-78
2021/10/31 03:11:45;;;;;;;24.95;10.95;;;14.20;91.30;;;;;;5021410;28;20104;-78
2021/10/31 03:14:10;;;;;;;20.98;10.60;;;14.20;91.30;;;;;;5014005;28;20092;-78
2021/10/31 03:16:36;;;;;;;24.23;12.45;;;14.20;91.20;;;;;;5019873;28;20547;-77
2021/10/31 03:19:02;;;;;;;17.95;10.02;;;14.20;91.20;;;;;;5027507;28;20109;-78
2021/10/31 03:21:28;;;;;;;19.88;10.93;;;14.20;91.10;;;;;;5033406;28;20065;-78
2021/10/31 03:23:53;;;;;;;20.65;10.88;;;14.20;91.10;;;;;;5030682;28;20052;-77
2021/10/31 03:26:22;;;;;;;18.73;9.75;;;14.30;91.10;;;;;;5030946;28;20029;-78
2021/10/31 03:28:48;;;;;;;21.50;12.20;;;14.20;91.00;;;;;;5030470;28;20033;-77
2021/10/31 03:31:13;;;;;;;19.90;12.02;;;14.20;90.90;;;;;;5021118;28;20084;-77
2021/10/31 03:33:39;;;;;;;30.92;10.98;;;14.10;90.90;;;;;;5022170;28;20064;-77
2021/10/31 03:36:05;;;;;;;19.00;11.75;;;14.10;90.90;;;;;;5026450;28;20505;-78
2021/10/31 03:38:30;;;;;;;26.02;11.52;;;14.10;90.90;;;;;;5024139;28;20018;-78
2021/10/31 03:40:56;;;;;;;20.15;11.40;;;14.10;90.90;;;;;;5020970;28;20029;-78
2021/10/31 03:43:22;;;;;;;27.55;11.75;;;14.10;90.90;;;;;;5027977;28;20038;-78
2021/10/31 03:45:50;;;;;;;23.73;12.20;;;14.10;90.90;;;;;;5020510;28;20060;-78
2021/10/31 03:48:16;;;;;;;19.45;11.63;;;14.10;90.90;;;;;;5020056;28;20053;-77
2021/10/31 03:50:41;;;;;;;13.95;7.10;;;14.10;90.90;;;;;;5030372;28;20053;-77
2021/10/31 03:53:07;;;;;;;16.88;10.02;;;14.00;90.80;;;;;;5019291;28;20050;-78
2021/10/31 03:55:33;;;;;;;20.17;12.18;;;14.00;90.80;;;;;;5036927;28;20037;-77
2021/10/31 03:57:59;;;;;;;19.73;11.27;;;14.00;90.80;;;;;;5023590;28;20112;-78
2021/10/31 04:00:24;;;;;;;24.05;10.45;;;14.00;90.80;;;;;;5024761;28;20021;-79
2021/10/31 04:02:51;;;;;;;21.90;10.00;;;14.00;90.80;;;;;;5022071;28;20378;-78
2021/10/31 04:05:17;;;;;;;17.55;11.02;;;13.90;90.80;;;;;;5027109;28;20654;-78
2021/10/31 04:07:43;;;;;;;25.83;11.20;;;14.00;90.80;;;;;;5018864;28;20487;-78
2021/10/31 04:10:09;;;;;;;17.83;10.27;;;13.90;90.70;;;;;;5030654;28;20036;-77
2021/10/31 04:12:35;;;;;;;22.08;11.93;;;13.90;90.80;;;;;;5013283;28;20040;-78
2021/10/31 04:15:05;;;;;;;19.42;10.13;;;13.90;90.80;;;;;;5030924;28;20117;-78
2021/10/31 04:17:32;;;;;;;20.88;10.68;;;13.90;90.80;;;;;;5027343;28;20049;-78
2021/10/31 04:19:58;;;;;;;21.88;9.45;;;13.80;90.70;;;;;;5018586;28;20037;-78
2021/10/31 04:22:24;;;;;;;11.55;7.47;;;13.80;90.70;;;;;;5018980;28;20473;-77
2021/10/31 04:24:49;;;;;;;22.35;10.23;;;13.80;90.70;;;;;;5029668;28;20038;-77
2021/10/31 04:27:18;;;;;;;22.33;10.98;;;13.80;90.70;;;;;;5028812;28;20030;-78
2021/10/31 04:29:43;;;;;;;21.92;11.13;;;13.70;90.70;;;;;;5026241;28;20432;-77
2021/10/31 04:32:09;;;;;;;19.98;10.75;;;13.70;90.70;;;;;;5033134;28;20029;-77
2021/10/31 04:34:35;;;;;;;23.83;11.65;;;13.80;90.70;;;;;;5033106;28;20025;-78
2021/10/31 04:37:02;;;;;;;19.48;9.80;;;13.70;90.70;;;;;;5027277;28;20057;-77
2021/10/31 04:39:28;;;;;;;22.38;11.05;;;13.80;90.70;;;;;;5025487;28;20030;-77
2021/10/31 04:42:01;;;;;;;26.27;11.70;;;13.70;90.60;;;;;;5023641;28;20021;-77
2021/10/31 04:44:27;;;;;;;20.02;11.23;;;13.70;90.60;;;;;;5033971;28;20143;-77
2021/10/31 04:46:52;;;;;;;24.63;11.52;;;13.80;90.60;;;;;;5029068;28;20651;-78
2021/10/31 04:49:21;;;;;;;21.63;10.18;;;13.80;90.60;;;;;;5028078;28;20473;-77
2021/10/31 04:51:46;;;;;;;20.42;11.50;;;13.70;90.60;;;;;;5030094;28;20026;-77
2021/10/31 04:54:12;;;;;;;25.50;10.70;;;13.80;90.70;;;;;;5022626;28;20100;-78
2021/10/31 04:56:37;;;;;;;21.88;11.77;;;13.70;90.70;;;;;;5027697;28;20040;-77
2021/10/31 04:59:03;;;;;;;19.80;12.20;;;13.70;90.70;;;;;;5023477;28;20104;-77
2021/10/31 05:01:29;;;;;;;20.75;10.38;;;13.80;90.80;;;;;;5017651;28;20050;-76
2021/10/31 05:03:54;;;;;;;21.50;11.77;;;13.80;90.70;;;;;;5020271;28;20029;-80
2021/10/31 05:06:20;;;;;;;19.75;11.02;;;13.70;90.70;;;;;;5027770;28;20098;-78
2021/10/31 05:08:46;;;;;;;22.17;12.55;;;13.80;90.60;;;;;;5025835;28;20030;-78
2021/10/31 05:11:12;;;;;;;21.25;12.45;;;13.70;90.60;;;;;;5031934;28;20107;-77
2021/10/31 05:13:39;;;;;;;14.10;9.05;;;13.70;90.70;;;;;;5024346;28;20056;-77
2021/10/31 05:16:05;;;;;;;21.27;12.13;;;13.70;90.70;;;;;;5024380;28;20025;-78
2021/10/31 05:18:31;;;;;;;17.10;10.05;;;13.70;90.70;;;;;;5031500;28;20044;-78
2021/10/31 05:20:57;;;;;;;23.02;12.70;;;13.70;90.70;;;;;;5029275;28;20083;-77
2021/10/31 05:23:23;;;;;;;21.80;12.00;;;13.70;90.80;;;;;;5021022;28;20034;-78
2021/10/31 05:25:48;;;;;;;25.25;10.95;;;13.70;90.80;;;;;;5026174;28;20053;-78
2021/10/31 05:28:14;;;;;;;31.10;13.98;;;13.80;90.80;;;;;;5032561;28;20043;-78
2021/10/31 05:30:41;;;;;;;28.92;14.63;;;13.80;90.80;;;;;;5033997;28;20057;-78
2021/10/31 05:33:06;;;;;;;22.73;12.77;;;13.80;90.80;;;;;;5020855;28;20424;-78
2021/10/31 05:35:35;;;;;;;15.27;7.65;;;13.80;90.80;;;;;;5028229;28;20060;-78
2021/10/31 05:38:02;;;;;;;27.48;13.35;;;13.80;90.60;;;;;;5028568;28;20067;-78
2021/10/31 05:40:29;;;;;;;23.67;12.13;;;13.80;90.50;;;;;;5021099;28;20034;-80
2021/10/31 05:42:55;;;;;;;25.35;13.90;;;13.80;90.40;;;;;;5028025;28;20041;-78
2021/10/31 05:45:21;;;;;;;12.77;6.53;;;13.70;90.40;;;;;;5033271;28;20400;-78
2021/10/31 05:47:47;;;;;;;29.52;15.10;;;13.70;90.20;;;;;;5031731;28;20025;-78
2021/10/31 05:50:16;;;;;;;30.45;14.65;;;13.70;90.40;;;;;;5016967;28;20107;-78
2021/10/31 05:52:43;;;;;;;26.33;12.98;;;13.60;90.50;;;;;;5022531;28;20037;-78
2021/10/31 05:55:11;;;;;;;24.20;13.02;;;13.60;90.50;;;;;;5033263;28;20374;-78
2021/10/31 05:57:37;;;;;;;26.42;15.15;;;13.60;90.50;;;;;;5022622;28;20037;-78
2021/10/31 06:00:08;;;;;;;27.70;15.75;;;13.60;90.50;;;;;;5021100;28;20063;-78
2021/10/31 06:02:41;;;;;;;36.90;17.05;;;13.60;90.70;;;;;;5029704;28;20107;-78
2021/10/31 06:05:08;;;;;;;27.63;15.23;;;13.60;90.70;;;;;;5032123;28;20112;-78
2021/10/31 06:07:34;;;;;;;29.40;15.30;;;13.70;90.80;;;;;;5031512;28;20558;-79
2021/10/31 06:09:59;;;;;;;26.65;14.02;;;13.60;90.70;;;;;;5027671;28;20061;-79
2021/10/31 06:12:28;;;;;;;27.52;12.07;;;13.70;90.80;;;;;;5029080;28;20103;-79
2021/10/31 06:14:55;;;;;;;28.45;16.15;;;13.70;90.80;;;;;;5028004;28;20070;-80
2021/10/31 06:17:20;;;;;;;37.08;17.35;;;13.70;90.70;;;;;;5022770;28;20033;-79
2021/10/31 06:19:46;;;;;;;26.58;15.65;;;13.70;90.80;;;;;;5023209;28;20021;-79
2021/10/31 06:22:14;;;;;;;30.90;16.08;;;13.80;90.80;;;;;;5026952;28;20037;-79
2021/10/31 06:24:40;;;;;;;30.63;15.52;;;13.80;90.80;;;;;;5024623;28;20424;-79
2021/10/31 06:27:06;;;;;;;24.85;13.52;;;13.80;90.70;;;;;;5028266;28;20113;-79
2021/10/31 06:29:32;;;;;;;27.88;13.30;;;13.80;90.60;;;;;;5020648;28;20038;-80
2021/10/31 06:31:57;;;;;;;25.63;12.23;;;13.80;90.60;;;;;;5031030;28;20025;-78
2021/10/31 06:34:23;;;;;;;29.55;15.85;;;13.80;90.60;;;;;;5028003;28;20038;-79
2021/10/31 06:36:49;;;;;;;25.60;10.68;;;13.80;90.60;;;;;;5031321;28;20079;-79
2021/10/31 06:39:14;;;;;;;24.50;13.13;;;13.80;90.60;;;;;;5031475;28;20037;-79
2021/10/31 06:41:40;;;;;;;21.98;11.15;;;13.80;90.60;;;;;;5032293;28;20068;-78
2021/10/31 06:44:06;;;;;;;31.42;14.55;;;13.80;90.50;;;;;;5027371;28;20038;-79
2021/10/31 06:46:32;;;;;;;27.92;12.30;;;13.80;90.50;;;;;;5016964;28;20057;-79
2021/10/31 06:48:58;;;;;;;27.00;13.02;;;13.80;90.40;;;;;;5031070;28;20037;-79
2021/10/31 06:51:23;;;;;;;24.30;11.32;;;13.80;90.50;;;;;;5019649;28;20079;-79
2021/10/31 06:53:49;;;;;;;8.20;5.15;;;13.80;90.30;;;;;;5027285;28;20476;-79
2021/10/31 06:56:16;;;;;;;17.40;7.80;;;13.80;90.20;;;;;;5031342;28;20523;-78
2021/10/31 06:58:43;;;;;;;18.48;11.23;;;13.70;90.20;;;;;;5021456;28;20041;-80
2021/10/31 07:01:09;;;;;;;20.35;11.32;;;13.70;90.30;;;;;;5028554;28;20045;-77
2021/10/31 07:03:35;;;;;;;12.43;6.38;;;13.70;90.40;;;;;;5022912;28;20109;-76
2021/10/31 07:06:02;;;;;;;13.90;7.38;;;13.70;90.50;;;;;;5016677;28;20026;-78
2021/10/31 07:08:27;;;;;;;18.67;9.25;;;13.70;90.60;;;;;;5014457;28;20037;-74
2021/10/31 07:10:53;;;;;;;28.85;13.80;;;13.70;90.40;;;;;;5025286;28;20388;-79
2021/10/31 07:13:19;;;;;;;20.90;9.55;;;13.70;90.40;;;;;;5029464;28;20048;-78
2021/10/31 07:15:45;;;;;;;21.98;12.35;;;13.80;90.40;;;;;;5021837;28;20121;-81
2021/10/31 07:18:11;;;;;;;23.00;11.90;;;13.70;90.40;;;;;;5025651;28;20017;-81
2021/10/31 07:20:37;;;;;;;23.00;12.43;;;13.70;90.50;;;;;;5029177;28;20378;-84
2021/10/31 07:23:02;;;;;;;23.85;11.02;;;13.70;90.70;;;;;;5023282;28;20046;-83
2021/10/31 07:25:28;;;;;;;24.60;12.43;;;13.80;90.80;;;;;;5028864;28;20064;-81
2021/10/31 07:27:55;;;;;;;21.95;12.25;;;13.80;90.70;;;;;;5029300;28;20464;-74
2021/10/31 07:30:22;;;;;;;24.10;11.45;;;13.80;90.80;;;;;;5029858;28;20029;-75
2021/10/31 07:33:00;;;;;;;22.95;11.75;;;13.80;90.70;;;;;;5030100;28;20027;-82
2021/10/31 07:35:27;;;;;;;21.27;11.95;;;13.90;90.70;;;;;;5022128;28;20045;-81
2021/10/31 07:37:53;;;;;;;24.25;12.52;;;13.80;90.60;;;;;;5022832;28;20405;-81
2021/10/31 07:40:19;;;;;;;18.13;9.65;;;13.80;90.80;;;;;;5029750;28;20499;-81
2021/10/31 07:42:45;;;;;;;16.45;9.18;;;13.90;90.60;;;;;;5022256;28;20034;-80
2021/10/31 07:45:11;;;;;;;18.20;9.27;;;13.90;90.60;;;;;;5024172;28;20032;-80
2021/10/31 07:47:37;;;;;;;13.00;6.38;;;13.90;90.60;;;;;;5027943;28;20362;-82
2021/10/31 07:50:05;;;;;;;16.63;8.80;;;13.90;90.60;;;;;;5024530;28;20536;-81
2021/10/31 07:52:30;;;;;;;21.83;9.27;;;13.90;90.60;;;;;;5027482;28;20068;-80
2021/10/31 07:55:00;;;;;;;21.23;10.57;;;13.90;90.50;;;;;;5024203;28;20030;-81
2021/10/31 07:57:28;;;;;;;20.25;11.25;;;13.90;90.70;;;;;;5026346;28;20044;-80
2021/10/31 07:59:54;;;;;;;19.45;9.38;;;13.90;90.70;;;;;;5029933;28;20036;-80
2021/10/31 08:02:20;;;;;;;22.15;11.65;;;13.90;90.80;;;;;;5027216;28;20046;-80
2021/10/31 08:04:46;;;;;;;20.02;10.48;;;13.90;90.80;;;;;;5031417;28;20068;-80
2021/10/31 08:07:13;;;;;;;23.50;11.00;;;13.90;90.80;;;;;;5030633;28;20057;-81
2021/10/31 08:09:39;;;;;;;9.70;4.60;;;13.90;90.90;;;;;;5029988;28;20040;-80
2021/10/31 08:12:06;;;;;;;20.80;9.30;;;13.90;91.00;;;;;;5033213;28;20112;-79
2021/10/31 08:14:31;;;;;;;16.15;8.55;;;14.00;90.80;;;;;;5029185;28;20475;-81
2021/10/31 08:16:57;;;;;;;15.73;7.57;;;13.90;90.90;;;;;;5027862;28;20036;-81
2021/10/31 08:19:24;;;;;;;13.07;7.90;;;13.90;90.70;;;;;;5030715;28;20026;-80
2021/10/31 08:21:52;;;;;;;19.10;10.25;;;13.90;90.70;;;;;;5024726;28;20033;-81
2021/10/31 08:24:20;;;;;;;16.90;7.47;;;13.90;90.80;;;;;;5025227;28;20049;-75
2021/10/31 08:26:47;;;;;;;11.40;6.20;;;14.00;90.80;;;;;;5027428;28;20029;-78
2021/10/31 08:29:14;;;;;;;14.30;7.30;;;13.90;90.70;;;;;;5032807;28;20392;-82
2021/10/31 08:31:44;;;;;;;17.67;9.35;;;14.00;90.90;;;;;;5024216;28;20045;-75
2021/10/31 08:34:10;;;;;;;20.50;10.43;;;14.00;90.90;;;;;;5031611;28;20025;-75
2021/10/31 08:36:36;;;;;;;15.40;8.20;;;14.00;90.90;;;;;;5033521;28;20500;-75
2021/10/31 08:39:04;;;;;;;15.80;10.02;;;14.00;90.90;;;;;;5031959;28;20029;-72
2021/10/31 08:41:30;;;;;;;15.93;8.43;;;14.00;91.00;;;;;;5027749;28;20038;-76
2021/10/31 08:43:59;;;;;;;14.35;7.00;;;14.10;91.00;;;;;;5031015;28;20034;-81
2021/10/31 08:46:29;;;;;;;13.35;8.85;;;14.10;91.00;;;;;;5030111;28;20025;-78
2021/10/31 08:48:55;;;;;;;15.18;7.75;;;14.00;91.00;;;;;;5021828;28;20033;-81
2021/10/31 08:51:23;;;;;;;20.15;8.18;;;14.10;90.90;;;;;;5034183;28;20075;-75
2021/10/31 08:53:49;;;;;;;16.98;9.60;;;14.10;90.80;;;;;;5033035;28;20076;-80
2021/10/31 08:56:14;;;;;;;16.83;8.13;;;14.10;90.90;;;;;;5026713;28;20033;-81
2021/10/31 08:58:41;;;;;;;15.13;8.88;;;14.10;90.80;;;;;;5029219;28;20116;-80
2021/10/31 09:01:08;;;;;;;16.20;8.25;;;14.10;90.90;;;;;;5022183;28;20056;-81
2021/10/31 09:03:34;;;;;;;7.55;4.85;;;14.10;90.90;;;;;;5029597;28;20060;-80
2021/10/31 09:06:00;;;;;;;17.58;10.95;;;14.10;90.80;;;;;;5029969;28;20409;-81
2021/10/31 09:08:25;;;;;;;19.00;8.57;;;14.10;91.00;;;;;;5014960;28;20026;-80
2021/10/31 09:10:52;;;;;;;16.17;9.32;;;14.20;91.00;;;;;;5028134;28;20022;-81
2021/10/31 09:13:23;;;;;;;20.35;12.68;;;14.20;91.10;;;;;;5031536;28;20071;-80
2021/10/31 09:15:51;;;;;;;21.13;11.30;;;14.20;91.30;;;;;;5030648;28;20058;-82
2021/10/31 09:18:16;;;;;;;17.50;9.73;;;14.20;91.20;;;;;;5029026;28;20030;-81
2021/10/31 09:20:42;;;;;;;20.42;11.73;;;14.30;91.20;;;;;;5017546;28;20041;-82
2021/10/31 09:23:09;;;;;;;23.48;12.60;;;14.30;91.40;;;;;;5027479;28;20037;-81
2021/10/31 09:25:35;;;;;;;20.98;13.60;;;14.30;91.40;;;;;;5024911;28;20059;-80
2021/10/31 09:28:02;;;;;;;25.25;12.60;;;14.30;91.40;;;;;;5032966;28;20022;-74
2021/10/31 09:30:30;;;;;;;25.95;13.25;;;14.40;91.40;;;;;;5030529;28;20496;-81
2021/10/31 09:32:57;;;;;;;18.77;9.20;;;14.30;91.30;;;;;;5025380;28;20029;-82
2021/10/31 09:35:25;;;;;;;19.48;11.63;;;14.30;91.20;;;;;;5031032;28;20037;-81
2021/10/31 09:37:56;;;;;;;17.40;11.05;;;14.40;91.30;;;;;;5033147;28;20083;-87
2021/10/31 09:40:23;;;;;;;19.50;9.95;;;14.40;91.30;;;;;;5027951;28;20038;-82
2021/10/31 09:42:51;;;;;;;24.58;11.30;;;14.40;91.20;;;;;;5025916;28;20063;-82
2021/10/31 09:45:19;;;;;;;24.75;11.50;;;14.40;91.40;;;;;;5031396;28;20029;-82
2021/10/31 09:47:51;;;;;;;20.60;11.65;;;14.40;91.50;;;;;;5030441;28;20030;-81
2021/10/31 09:50:17;;;;;;;17.10;10.27;;;14.50;91.60;;;;;;5028872;28;20380;-83
2021/10/31 09:52:43;;;;;;;19.45;12.18;;;14.50;91.50;;;;;;5020374;28;20120;-82
2021/10/31 09:55:10;;;;;;;17.67;10.70;;;14.50;91.80;;;;;;5026824;28;20057;-77
2021/10/31 09:57:36;;;;;;;19.27;12.27;;;14.50;91.50;;;;;;5025377;28;20080;-79
2021/10/31 10:00:02;;;;;;;19.55;11.63;;;14.60;91.40;;;;;;5030326;28;20029;-71
2021/10/31 10:05:24;;;;;;;17.42;10.40;;;14.60;91.50;;;;;;5029836;28;20033;-83
2021/10/31 10:08:16;;;;;;;18.60;10.27;;;14.70;91.50;;;;;;5026199;28;20492;-83
2021/10/31 10:10:48;;;;;;;15.73;7.95;;;14.70;91.50;;;;;;5030141;28;20094;-83
2021/10/31 10:13:22;;;;;;;12.60;7.20;;;14.70;91.40;;;;;;5027582;28;20063;-82
2021/10/31 10:15:49;;;;;;;12.63;7.28;;;14.70;91.50;;;;;;5033058;28;20109;-84
2021/10/31 10:18:29;;;;;;;15.82;9.43;;;14.80;91.30;;;;;;5031522;28;20022;-82
2021/10/31 10:21:12;;;;;;;14.85;9.00;;;14.80;91.40;;;;;;5027891;28;20037;-83
2021/10/31 10:23:56;;;;;;;15.27;8.30;;;14.80;91.40;;;;;;5022867;28;20397;-80
2021/10/31 10:26:37;;;;;;;16.25;9.13;;;14.90;91.40;;;;;;5027576;28;20045;-78
2021/10/31 10:29:12;;;;;;;13.70;7.78;;;14.80;91.40;;;;;;5024053;28;20486;-77
2021/10/31 10:31:46;;;;;;;7.57;4.80;;;14.90;91.70;;;;;;5027492;28;20060;-77
2021/10/31 10:34:13;;;;;;;8.35;4.80;;;14.90;91.60;;;;;;5031764;28;20049;-83
2021/10/31 10:36:42;;;;;;;11.68;6.38;;;14.90;91.50;;;;;;5023886;28;20040;-79
2021/10/31 10:39:14;;;;;;;13.50;7.25;;;15.00;91.60;;;;;;5022366;28;20025;-79
2021/10/31 10:41:51;;;;;;;19.58;8.45;;;15.00;91.50;;;;;;5027784;28;20033;-84
2021/10/31 10:44:28;;;;;;;15.00;6.47;;;15.00;91.70;;;;;;5027538;28;20131;-82
2021/10/31 10:47:19;;;;;;;11.40;6.47;;;15.00;91.60;;;;;;5028613;28;20037;-81
2021/10/31 10:49:45;;;;;;;12.73;6.32;;;15.10;91.40;;;;;;5025990;28;20029;-78
2021/10/31 10:52:20;;;;;;;6.63;3.65;;;15.00;91.50;;;;;;5027889;28;20473;-78
2021/10/31 10:54:48;;;;;;;10.90;6.30;;;15.10;91.50;;;;;;5031793;28;20152;-77
2021/10/31 10:57:14;;;;;;;9.68;4.63;;;15.10;91.50;;;;;;5023793;28;20370;-80
2021/10/31 10:59:41;;;;;;;12.85;5.93;;;15.10;91.60;;;;;;5025303;28;20030;-79
2021/10/31 11:02:10;;;;;;;12.23;6.40;;;15.20;91.50;;;;;;5026089;28;20053;-79
2021/10/31 11:04:37;;;;;;;13.07;5.32;;;15.10;91.50;;;;;;5034758;28;20044;-79
2021/10/31 11:07:04;;;;;;;7.97;5.65;;;15.20;91.30;;;;;;5029205;28;20052;-80
2021/10/31 11:09:48;;;;;;;7.07;4.32;;;15.20;91.50;;;;;;5022821;28;20030;-79
2021/10/31 11:12:24;;;;;;;11.65;6.15;;;15.20;91.40;;;;;;5030111;28;20033;-78
2021/10/31 11:14:52;;;;;;;12.80;6.05;;;15.30;91.50;;;;;;5032417;28;20029;-78
2021/10/31 11:17:19;;;;;;;5.60;2.35;;;15.30;91.40;;;;;;5023193;28;20095;-76
2021/10/31 11:19:46;;;;;;;12.90;5.70;;;15.30;91.20;;;;;;5017447;28;20041;-79
2021/10/31 11:22:12;;;;;;;11.32;4.38;;;15.30;91.30;;;;;;5017144;28;20119;-79
2021/10/31 11:24:38;;;;;;;12.07;5.78;;;15.30;91.30;;;;;;5027318;28;20523;-74
2021/10/31 11:27:08;;;;;;;16.90;6.65;;;15.30;91.30;;;;;;5022376;28;20470;-78
2021/10/31 11:29:34;;;;;;;9.55;5.88;;;15.40;91.40;;;;;;5020117;28;20134;-80
2021/10/31 11:32:00;;;;;;;10.00;5.72;;;15.40;91.40;;;;;;5029791;28;20033;-83
2021/10/31 11:34:27;;;;;;;13.18;5.35;;;15.50;91.40;;;;;;5027173;28;20026;-80
2021/10/31 11:36:53;;;;;;;10.05;6.35;;;15.40;91.30;;;;;;5029313;28;20033;-81
2021/10/31 11:39:23;;;;;;;9.35;5.35;;;15.50;91.40;;;;;;5031578;28;20443;-81
2021/10/31 11:41:49;;;;;;;9.35;5.60;;;15.50;91.30;;;;;;5032711;28;20116;-81
2021/10/31 11:44:15;;;;;;;9.77;5.10;;;15.50;91.40;;;;;;5035773;28;20073;-80
2021/10/31 11:46:42;;;;;;;11.73;5.72;;;15.60;91.30;;;;;;5035735;28;20068;-80
2021/10/31 11:49:12;;;;;;;10.18;5.25;;;15.60;91.30;;;;;;5035049;28;20057;-86
2021/10/31 11:51:44;;;;;;;6.55;2.92;;;15.70;91.30;;;;;;5033246;28;20033;-83
2021/10/31 11:54:14;;;;;;;8.88;5.18;;;15.70;91.20;;;;;;5030281;28;20081;-83
2021/10/31 11:56:41;;;;;;;13.93;6.90;;;15.70;91.10;;;;;;5031846;28;20025;-85
2021/10/31 11:59:16;;;;;;;13.30;6.80;;;15.70;91.10;;;;;;5034398;28;20037;-83
2021/10/31 12:01:49;;;;;;;17.40;7.97;;;15.80;91.20;;;;;;5041388;28;20044;-84
2021/10/31 12:04:27;;;;;;;18.55;6.97;;;15.70;91.10;;;;;;5037150;28;20091;-82
2021/10/31 12:06:55;;;;;;;10.98;6.63;;;15.80;91.10;;;;;;5040077;28;20087;-82
2021/10/31 12:09:24;;;;;;;11.88;5.20;;;15.80;91.00;;;;;;5041651;28;20115;-83
2021/10/31 12:11:55;;;;;;;15.80;7.50;;;15.80;91.00;;;;;;5034496;28;20038;-88
2021/10/31 12:14:43;;;;;;;11.23;6.45;;;15.90;91.00;;;;;;5041348;28;20037;-85
2021/10/31 12:17:09;;;;;;;14.13;7.47;;;15.90;91.00;;;;;;5032788;28;20034;-81
2021/10/31 12:19:40;;;;;;;16.33;7.53;;;15.90;90.90;;;;;;5032105;28;20051;-82
2021/10/31 12:22:11;;;;;;;11.13;6.40;;;15.90;90.90;;;;;;5030805;28;20025;-82
2021/10/31 12:24:59;;;;;;;11.27;6.05;;;16.00;90.80;;;;;;5033048;28;20115;-86
2021/10/31 12:27:38;;;;;;;12.32;5.65;;;16.00;90.90;;;;;;5036729;28;20108;-90
2021/10/31 12:30:27;;;;;;;11.98;6.13;;;16.00;90.80;;;;;;5025587;28;20042;-86
2021/10/31 12:33:14;;;;;;;10.05;5.47;;;16.00;90.80;;;;;;5029803;28;20022;-78
2021/10/31 12:35:43;;;;;;;10.75;6.20;;;16.00;90.80;;;;;;5032765;28;20037;-85
2021/10/31 12:38:22;;;;;;;9.32;4.55;;;16.00;90.80;;;;;;5028768;28;20037;-76
2021/10/31 12:41:07;;;;;;;10.05;6.18;;;16.00;90.80;;;;;;5032296;28;20044;-85
2021/10/31 12:43:50;;;;;;;10.75;6.13;;;16.00;90.70;;;;;;5032443;28;20037;-72
2021/10/31 12:46:26;;;;;;;11.57;6.95;;;16.00;90.70;;;;;;5029056;28;20477;-83